createdAt,value
2022-12-12T00:00:10.507Z,14.17
2022-12-12T00:02:43.552Z,12.43
2022-12-12T00:05:17.670Z,13.37
2022-12-12T00:07:50.492Z,13.30
2022-12-12T00:10:25.824Z,14.53
2022-12-12T00:13:00.825Z,11.93
2022-12-12T00:15:33.631Z,15.27
2022-12-12T00:18:06.607Z,12.73
2022-12-12T00:20:41.973Z,12.40
2022-12-12T00:23:14.869Z,12.57
2022-12-12T00:25:57.128Z,13.37
2022-12-12T00:28:31.688Z,13.87
2022-12-12T00:31:04.552Z,9.27
2022-12-12T00:33:37.317Z,11.37
2022-12-12T00:36:10.280Z,12.57
2022-12-12T00:38:42.905Z,16.43
2022-12-12T00:41:15.947Z,14.57
2022-12-12T00:43:50.254Z,14.23
2022-12-12T00:46:23.828Z,13.57
2022-12-12T00:48:58.106Z,15.17
2022-12-12T00:51:31.622Z,12.50
2022-12-12T00:54:04.397Z,14.60
2022-12-12T00:56:37.268Z,14.33
2022-12-12T00:59:11.668Z,14.73
2022-12-12T01:01:45.806Z,11.83
2022-12-12T01:04:18.922Z,13.93
2022-12-12T01:06:51.685Z,13.60
2022-12-12T01:09:24.442Z,15.77
2022-12-12T01:11:57.273Z,13.60
2022-12-12T01:14:33.931Z,15.07
2022-12-12T01:17:06.816Z,14.47
2022-12-12T01:19:39.658Z,10.27
2022-12-12T01:22:12.357Z,13.13
2022-12-12T01:24:47.807Z,14.33
2022-12-12T01:27:22.913Z,15.53
2022-12-12T01:30:01.677Z,14.00
2022-12-12T01:32:34.570Z,12.73
2022-12-12T01:35:08.285Z,14.00
2022-12-12T01:37:43.772Z,13.07
2022-12-12T01:40:17.826Z,13.90
2022-12-12T01:42:52.049Z,13.33
2022-12-12T01:45:43.515Z,13.53
2022-12-12T01:48:18.088Z,14.80
2022-12-12T01:50:51.312Z,13.73
2022-12-12T01:53:25.609Z,12.07
2022-12-12T01:55:58.562Z,11.63
2022-12-12T01:58:31.618Z,14.43
2022-12-12T02:01:04.579Z,13.00
2022-12-12T02:03:40.005Z,14.57
2022-12-12T02:06:20.236Z,14.87
2022-12-12T02:08:54.502Z,14.20
2022-12-12T02:11:33.458Z,13.53
2022-12-12T02:14:06.182Z,14.87
2022-12-12T02:16:59.525Z,14.47
2022-12-12T02:19:42.786Z,11.03
2022-12-12T02:22:20.269Z,12.90
2022-12-12T02:25:01.910Z,13.57
2022-12-12T02:27:41.458Z,13.43
2022-12-12T02:30:17.626Z,13.83
2022-12-12T02:33:20.458Z,14.27
2022-12-12T02:35:59.437Z,13.90
2022-12-12T02:38:35.156Z,11.37
2022-12-12T02:41:14.956Z,12.07
2022-12-12T02:43:55.293Z,14.97
2022-12-12T02:46:30.265Z,13.23
2022-12-12T02:49:04.036Z,12.43
2022-12-12T02:51:41.575Z,13.83
2022-12-12T02:54:15.129Z,13.60
2022-12-12T02:56:52.429Z,14.07
2022-12-12T02:59:26.979Z,15.37
2022-12-12T03:02:09.892Z,14.63
2022-12-12T03:05:05.209Z,14.67
2022-12-12T03:07:50.418Z,15.83
2022-12-12T03:10:33.735Z,14.80
2022-12-12T03:13:10.353Z,12.40
2022-12-12T03:15:48.485Z,14.73
2022-12-12T03:18:24.424Z,13.67
2022-12-12T03:21:02.970Z,15.47
2022-12-12T03:23:41.708Z,15.50
2022-12-12T03:26:16.093Z,15.23
2022-12-12T03:28:50.485Z,14.60
2022-12-12T03:31:26.669Z,14.47
2022-12-12T03:34:04.033Z,15.73
2022-12-12T03:36:39.012Z,16.23
2022-12-12T03:39:16.375Z,15.73
2022-12-12T03:41:54.021Z,13.03
2022-12-12T03:44:29.119Z,15.77
2022-12-12T03:47:04.733Z,16.20
2022-12-12T03:49:44.378Z,15.30
2022-12-12T03:52:21.430Z,15.13
2022-12-12T03:54:59.821Z,14.43
2022-12-12T03:57:34.575Z,15.37
2022-12-12T04:00:08.626Z,14.77
2022-12-12T04:02:43.951Z,13.97
2022-12-12T04:05:19.129Z,15.73
2022-12-12T04:07:53.780Z,13.33
2022-12-12T04:10:47.152Z,14.50
2022-12-12T04:13:31.931Z,13.27
2022-12-12T04:16:07.395Z,15.20
2022-12-12T04:18:47.635Z,14.63
2022-12-12T04:21:45.965Z,13.27
2022-12-12T04:24:23.375Z,14.40
2022-12-12T04:27:01.411Z,13.00
2022-12-12T04:29:38.676Z,12.80
2022-12-12T04:32:14.511Z,13.50
2022-12-12T04:34:50.633Z,11.60
2022-12-12T04:37:29.121Z,12.90
2022-12-12T04:40:03.830Z,12.13
2022-12-12T04:42:40.101Z,12.63
2022-12-12T04:45:16.417Z,12.50
2022-12-12T04:47:52.965Z,12.93
2022-12-12T04:50:28.630Z,10.20
2022-12-12T04:53:02.949Z,11.60
2022-12-12T04:55:36.841Z,11.27
2022-12-12T04:58:11.254Z,9.57
2022-12-12T05:00:47.777Z,9.03
2022-12-12T05:03:22.263Z,12.07
2022-12-12T05:05:57.737Z,9.97
2022-12-12T05:08:33.299Z,7.80
2022-12-12T05:11:06.775Z,9.10
2022-12-12T05:13:42.276Z,8.93
2022-12-12T05:16:18.224Z,9.17
2022-12-12T05:18:51.082Z,9.30
2022-12-12T05:21:23.966Z,8.67
2022-12-12T05:23:57.407Z,6.00
2022-12-12T05:26:34.173Z,8.03
2022-12-12T05:29:08.310Z,7.87
2022-12-12T05:31:41.072Z,7.87
2022-12-12T05:34:16.522Z,8.50
2022-12-12T05:36:49.603Z,8.70
2022-12-12T05:39:22.456Z,7.63
2022-12-12T05:41:55.212Z,8.27
2022-12-12T05:44:29.458Z,7.80
2022-12-12T05:47:02.206Z,6.60
2022-12-12T05:49:34.975Z,6.93
2022-12-12T05:52:07.900Z,5.63
2022-12-12T05:54:41.225Z,6.97
2022-12-12T05:57:13.881Z,6.53
2022-12-12T05:59:48.052Z,6.33
2022-12-12T06:02:21.144Z,4.10
2022-12-12T06:04:53.965Z,5.80
2022-12-12T06:07:26.678Z,3.93
2022-12-12T06:09:59.440Z,6.33
2022-12-12T06:12:34.573Z,7.10
2022-12-12T06:15:09.346Z,5.30
2022-12-12T06:17:42.198Z,5.40
2022-12-12T06:20:14.935Z,5.73
2022-12-12T06:22:53.849Z,6.47
2022-12-12T06:25:27.077Z,4.70
2022-12-12T06:27:59.807Z,5.70
2022-12-12T06:30:33.909Z,5.90
2022-12-12T06:33:08.706Z,7.23
2022-12-12T06:35:41.531Z,6.43
2022-12-12T06:38:14.314Z,4.73
2022-12-12T06:40:47.105Z,6.60
2022-12-12T06:43:19.934Z,6.53
2022-12-12T06:45:54.163Z,5.80
2022-12-12T06:48:26.948Z,6.07
2022-12-12T06:51:00.207Z,6.33
2022-12-12T06:53:32.912Z,6.00
2022-12-12T06:56:09.883Z,5.73
2022-12-12T06:58:43.230Z,6.33
2022-12-12T07:01:19.513Z,6.00
2022-12-12T07:03:55.534Z,6.13
2022-12-12T07:06:28.720Z,6.97
2022-12-12T07:09:02.965Z,6.50
2022-12-12T07:11:35.898Z,6.07
2022-12-12T07:14:08.878Z,6.77
2022-12-12T07:16:43.721Z,5.40
2022-12-12T07:19:19.017Z,6.80
2022-12-12T07:21:51.815Z,6.80
2022-12-12T07:24:26.315Z,6.80
2022-12-12T07:26:59.160Z,6.87
2022-12-12T07:29:31.853Z,6.80
2022-12-12T07:32:06.133Z,6.17
2022-12-12T07:34:38.936Z,6.30
2022-12-12T07:37:11.750Z,6.73
2022-12-12T07:39:44.711Z,6.30
2022-12-12T07:42:17.431Z,5.70
2022-12-12T07:44:50.619Z,5.57
2022-12-12T07:47:24.926Z,6.80
2022-12-12T07:49:57.692Z,6.20
2022-12-12T07:52:30.495Z,5.97
2022-12-12T07:55:03.487Z,6.97
2022-12-12T07:57:36.412Z,5.90
2022-12-12T08:00:10.461Z,5.63
2022-12-12T08:02:44.709Z,6.77
2022-12-12T08:05:17.802Z,6.87
2022-12-12T08:07:53.817Z,6.40
2022-12-12T08:10:28.886Z,5.90
2022-12-12T08:13:01.842Z,6.10
2022-12-12T08:15:37.113Z,6.30
2022-12-12T08:18:11.430Z,5.57
2022-12-12T08:20:44.283Z,6.40
2022-12-12T08:23:19.652Z,6.17
2022-12-12T08:25:55.364Z,6.23
2022-12-12T08:28:28.196Z,5.57
2022-12-12T08:31:01.023Z,5.73
2022-12-12T08:33:35.174Z,5.80
2022-12-12T08:36:15.497Z,5.97
2022-12-12T08:38:51.436Z,5.63
2022-12-12T08:41:25.079Z,6.43
2022-12-12T08:43:57.771Z,5.33
2022-12-12T08:46:30.808Z,6.23
2022-12-12T08:49:05.113Z,6.27
2022-12-12T08:51:38.979Z,6.13
2022-12-12T08:54:12.421Z,6.10
2022-12-12T08:56:47.923Z,6.10
2022-12-12T08:59:21.134Z,5.70
2022-12-12T09:01:54.076Z,4.80
2022-12-12T09:04:28.359Z,6.20
2022-12-12T09:07:06.652Z,6.33
2022-12-12T09:09:41.277Z,5.20
2022-12-12T09:12:14.378Z,5.40
2022-12-12T09:14:47.298Z,5.67
2022-12-12T09:17:20.087Z,5.67
2022-12-12T09:19:55.198Z,5.67
2022-12-12T09:22:27.897Z,5.60
2022-12-12T09:25:00.962Z,5.70
2022-12-12T09:27:33.840Z,5.40
2022-12-12T09:30:07.445Z,5.80
2022-12-12T09:32:42.461Z,5.00
2022-12-12T09:35:16.874Z,4.20
2022-12-12T09:37:49.739Z,5.37
2022-12-12T09:40:28.946Z,5.60
2022-12-12T09:43:02.616Z,5.27
2022-12-12T09:45:37.117Z,5.57
2022-12-12T09:48:11.456Z,5.83
2022-12-12T09:50:48.465Z,6.00
2022-12-12T09:53:23.955Z,5.90
2022-12-12T09:56:01.867Z,5.90
2022-12-12T09:58:42.073Z,7.30
2022-12-12T10:01:21.960Z,5.43
2022-12-12T10:04:01.269Z,5.10
2022-12-12T10:06:39.795Z,5.77
2022-12-12T10:09:28.380Z,5.00
2022-12-12T10:12:06.476Z,5.93
2022-12-12T10:14:44.098Z,4.47
2022-12-12T10:17:20.507Z,2.87
2022-12-12T10:19:54.345Z,4.77
2022-12-12T10:22:31.067Z,5.03
2022-12-12T10:25:07.315Z,4.60
2022-12-12T10:27:42.589Z,4.47
2022-12-12T10:30:17.046Z,4.27
2022-12-12T10:33:03.804Z,4.33
2022-12-12T10:35:40.807Z,4.67
2022-12-12T10:38:25.642Z,4.13
2022-12-12T10:41:01.614Z,4.10
2022-12-12T10:43:36.758Z,3.90
2022-12-12T10:46:14.395Z,4.23
2022-12-12T10:48:48.928Z,4.50
2022-12-12T10:51:27.524Z,3.60
2022-12-12T10:54:02.165Z,4.43
2022-12-12T10:56:34.982Z,4.03
2022-12-12T10:59:08.181Z,3.87
2022-12-12T11:02:11.307Z,4.00
2022-12-12T11:04:34.036Z,2.77
2022-12-12T11:07:06.944Z,3.27
2022-12-12T11:09:45.783Z,4.10
2022-12-12T11:12:20.900Z,4.20
2022-12-12T11:14:54.560Z,5.40
2022-12-12T11:17:28.035Z,5.30
2022-12-12T11:20:01.983Z,4.40
2022-12-12T11:22:34.927Z,4.73
2022-12-12T11:25:22.021Z,4.77
2022-12-12T11:27:55.303Z,4.87
2022-12-12T11:30:31.625Z,5.53
2022-12-12T11:33:06.737Z,5.20
2022-12-12T11:35:47.037Z,5.13
2022-12-12T11:38:22.753Z,4.60
2022-12-12T11:41:02.334Z,4.80
2022-12-12T11:43:37.115Z,4.93
2022-12-12T11:46:22.807Z,5.03
2022-12-12T11:49:02.771Z,4.70
2022-12-12T11:51:37.369Z,5.53
2022-12-12T11:54:12.932Z,6.50
2022-12-12T11:56:51.317Z,4.57
2022-12-12T11:59:35.996Z,5.60
2022-12-12T12:02:27.254Z,6.00
2022-12-12T12:05:06.402Z,6.50
2022-12-12T12:07:50.455Z,5.67
2022-12-12T12:10:28.882Z,6.83
2022-12-12T12:13:12.315Z,6.17
2022-12-12T12:15:51.254Z,6.93
2022-12-12T12:18:33.904Z,4.90
2022-12-12T12:21:24.437Z,5.40
2022-12-12T12:24:12.816Z,6.67
2022-12-12T12:26:49.936Z,6.37
2022-12-12T12:29:46.810Z,6.20
2022-12-12T12:32:25.216Z,6.63
2022-12-12T12:35:07.432Z,8.97
2022-12-12T12:37:46.128Z,5.97
2022-12-12T12:40:24.948Z,6.83
2022-12-12T12:43:05.783Z,6.00
2022-12-12T12:45:46.261Z,5.13
2022-12-12T12:48:23.510Z,3.83
2022-12-12T12:51:04.411Z,4.70
2022-12-12T12:53:39.092Z,3.10
2022-12-12T12:56:19.046Z,3.97
2022-12-12T12:58:56.621Z,4.70
2022-12-12T13:01:32.983Z,5.00
2022-12-12T13:04:13.300Z,2.43
2022-12-12T13:06:52.592Z,4.13
2022-12-12T13:09:28.948Z,4.43
2022-12-12T13:12:11.138Z,6.37
2022-12-12T13:14:47.317Z,4.90
2022-12-12T13:17:23.781Z,4.67
2022-12-12T13:19:58.798Z,2.57
2022-12-12T13:22:40.399Z,4.37
2022-12-12T13:25:15.879Z,3.80
2022-12-12T13:27:51.601Z,4.83
2022-12-12T13:30:28.039Z,2.87
2022-12-12T13:33:11.819Z,4.53
2022-12-12T13:35:48.985Z,4.83
2022-12-12T13:38:24.694Z,4.80
2022-12-12T13:40:58.806Z,4.93
2022-12-12T13:43:43.466Z,4.57
2022-12-12T13:46:43.709Z,4.20
2022-12-12T13:49:31.569Z,4.60
2022-12-12T13:52:23.341Z,5.43
2022-12-12T13:55:19.047Z,4.37
2022-12-12T13:58:07.986Z,6.07
2022-12-12T14:00:41.395Z,6.00
2022-12-12T14:03:22.135Z,5.30
2022-12-12T14:05:57.966Z,4.73
2022-12-12T14:08:32.793Z,6.43
2022-12-12T14:11:08.134Z,7.67
2022-12-12T14:13:43.169Z,5.83
2022-12-12T14:16:23.119Z,7.03
2022-12-12T14:19:04.378Z,6.50
2022-12-12T14:21:42.399Z,7.03
2022-12-12T14:24:35.187Z,5.40
2022-12-12T14:27:09.767Z,7.50
2022-12-12T14:29:43.450Z,5.47
2022-12-12T14:32:27.082Z,8.20
2022-12-12T14:35:08.875Z,7.37
2022-12-12T14:37:51.798Z,7.60
2022-12-12T14:40:25.916Z,4.73
2022-12-12T14:43:18.894Z,7.90
2022-12-12T14:45:55.529Z,8.10
2022-12-12T14:48:28.879Z,7.50
2022-12-12T14:51:04.486Z,8.50
2022-12-12T14:53:46.961Z,7.53
2022-12-12T14:56:20.646Z,6.60
2022-12-12T14:58:59.663Z,6.00
2022-12-12T15:01:37.380Z,8.50
2022-12-12T15:04:14.398Z,8.83
2022-12-12T15:06:51.177Z,7.70
2022-12-12T15:09:26.125Z,4.80
2022-12-12T15:12:10.095Z,6.70
2022-12-12T15:14:54.214Z,6.30
2022-12-12T15:17:28.724Z,8.93
2022-12-12T15:20:09.298Z,8.03
2022-12-12T15:22:50.973Z,9.03
2022-12-12T15:25:27.321Z,8.60
2022-12-12T15:28:03.124Z,5.53
2022-12-12T15:30:39.485Z,5.77
2022-12-12T15:33:17.331Z,8.07
2022-12-12T15:35:50.700Z,5.43
2022-12-12T15:38:23.603Z,8.60
2022-12-12T15:40:58.543Z,8.17
2022-12-12T15:43:32.157Z,8.03
2022-12-12T15:46:15.130Z,6.20
2022-12-12T15:48:49.465Z,7.40
2022-12-12T15:51:25.281Z,7.33
2022-12-12T15:53:59.497Z,7.27
2022-12-12T15:56:32.414Z,4.77
2022-12-12T15:59:15.882Z,5.50
2022-12-12T16:01:50.199Z,5.13
2022-12-12T16:04:23.876Z,7.90
2022-12-12T16:07:15.211Z,6.83
2022-12-12T16:09:58.573Z,4.50
2022-12-12T16:12:50.060Z,7.47
2022-12-12T16:15:28.910Z,7.30
2022-12-12T16:18:04.753Z,7.23
2022-12-12T16:20:37.701Z,8.17
2022-12-12T16:23:20.848Z,7.53
2022-12-12T16:25:53.613Z,7.17
2022-12-12T16:28:27.206Z,8.23
2022-12-12T16:31:01.143Z,6.87
2022-12-12T16:33:38.169Z,5.30
2022-12-12T16:36:15.044Z,7.80
2022-12-12T16:38:47.903Z,8.10
2022-12-12T16:41:20.687Z,7.90
2022-12-12T16:43:53.550Z,7.83
2022-12-12T16:46:27.025Z,7.23
2022-12-12T16:49:04.747Z,7.33
2022-12-12T16:51:41.008Z,6.57
2022-12-12T16:54:16.124Z,5.53
2022-12-12T16:56:52.599Z,7.00
2022-12-12T16:59:25.575Z,8.00
2022-12-12T17:01:58.762Z,7.93
2022-12-12T17:04:33.451Z,8.90
2022-12-12T17:07:08.011Z,9.17
2022-12-12T17:09:40.876Z,8.57
2022-12-12T17:12:15.400Z,8.10
2022-12-12T17:14:48.303Z,6.47
2022-12-12T17:17:20.986Z,7.03
2022-12-12T17:19:55.063Z,6.90
2022-12-12T17:22:27.780Z,6.20
2022-12-12T17:25:00.942Z,6.97
2022-12-12T17:27:33.871Z,7.23
2022-12-12T17:30:08.620Z,5.73
2022-12-12T17:32:41.707Z,6.77
2022-12-12T17:35:16.063Z,6.07
2022-12-12T17:37:48.930Z,6.90
2022-12-12T17:40:21.939Z,6.23
2022-12-12T17:42:54.716Z,6.73
2022-12-12T17:45:27.725Z,6.10
2022-12-12T17:48:00.771Z,6.07
2022-12-12T17:50:39.979Z,5.67
2022-12-12T17:53:14.715Z,6.07
2022-12-12T17:55:53.711Z,6.33
2022-12-12T17:58:32.593Z,5.87
2022-12-12T18:01:10.565Z,5.40
2022-12-12T18:03:43.736Z,5.07
2022-12-12T18:06:18.503Z,4.80
2022-12-12T18:08:51.929Z,4.90
2022-12-12T18:11:28.669Z,4.20
2022-12-12T18:14:03.954Z,4.60
2022-12-12T18:16:37.355Z,5.10
2022-12-12T18:19:10.395Z,4.87
2022-12-12T18:22:02.652Z,4.60
2022-12-12T18:24:38.203Z,4.33
2022-12-12T18:27:10.939Z,4.07
2022-12-12T18:29:43.768Z,5.40
2022-12-12T18:32:16.736Z,3.87
2022-12-12T18:34:49.472Z,4.30
2022-12-12T18:37:23.716Z,5.07
2022-12-12T18:39:56.453Z,3.83
2022-12-12T18:42:29.159Z,4.77
2022-12-12T18:45:01.882Z,3.17
2022-12-12T18:47:34.650Z,5.67
2022-12-12T18:50:07.600Z,3.77
2022-12-12T18:52:41.807Z,3.53
2022-12-12T18:55:16.542Z,4.30
2022-12-12T18:57:50.762Z,4.23
2022-12-12T19:00:23.763Z,4.50
2022-12-12T19:02:56.730Z,4.40
2022-12-12T19:05:30.900Z,3.50
2022-12-12T19:08:05.505Z,3.80
2022-12-12T19:10:38.658Z,4.27
2022-12-12T19:13:14.010Z,4.30
2022-12-12T19:15:47.404Z,4.67
2022-12-12T19:18:20.371Z,5.30
2022-12-12T19:20:54.541Z,3.63
2022-12-12T19:23:28.759Z,5.53
2022-12-12T19:26:04.344Z,5.93
2022-12-12T19:28:37.238Z,5.10
2022-12-12T19:31:11.373Z,5.67
2022-12-12T19:33:44.380Z,5.70
2022-12-12T19:36:18.507Z,5.87
2022-12-12T19:38:53.292Z,5.93
2022-12-12T19:41:26.157Z,5.60
2022-12-12T19:44:08.602Z,6.10
2022-12-12T19:46:43.138Z,5.93
2022-12-12T19:49:18.035Z,5.80
2022-12-12T19:51:50.939Z,6.43
2022-12-12T19:54:25.234Z,6.03
2022-12-12T19:56:59.494Z,5.80
2022-12-12T19:59:32.387Z,5.50
2022-12-12T20:02:07.140Z,6.00
2022-12-12T20:04:44.232Z,6.17
2022-12-12T20:07:16.984Z,5.53
2022-12-12T20:09:51.256Z,5.97
2022-12-12T20:12:24.432Z,7.13
2022-12-12T20:14:57.261Z,6.20
2022-12-12T20:17:30.110Z,6.57
2022-12-12T20:20:04.298Z,6.03
2022-12-12T20:22:36.877Z,7.20
2022-12-12T20:25:11.328Z,6.80
2022-12-12T20:27:44.115Z,6.43
2022-12-12T20:30:17.239Z,7.43
2022-12-12T20:32:49.931Z,7.37
2022-12-12T20:35:22.664Z,7.30
2022-12-12T20:37:55.392Z,6.90
2022-12-12T20:40:29.664Z,8.40
2022-12-12T20:43:03.741Z,8.03
2022-12-12T20:45:39.170Z,8.50
2022-12-12T20:48:12.045Z,9.30
2022-12-12T20:50:46.088Z,10.90
2022-12-12T20:53:18.806Z,10.67
2022-12-12T20:55:53.189Z,11.97
2022-12-12T20:58:26.103Z,11.60
2022-12-12T21:00:58.971Z,11.13
2022-12-12T21:03:31.635Z,9.87
2022-12-12T21:06:11.054Z,10.07
2022-12-12T21:08:45.928Z,12.43
2022-12-12T21:11:20.962Z,12.90
2022-12-12T21:13:54.206Z,13.40
2022-12-12T21:16:28.566Z,12.97
2022-12-12T21:19:02.423Z,12.33
2022-12-12T21:21:35.242Z,12.13
2022-12-12T21:24:08.291Z,13.17
2022-12-12T21:26:42.475Z,12.80
2022-12-12T21:29:15.335Z,13.90
2022-12-12T21:31:52.055Z,13.03
2022-12-12T21:34:25.242Z,12.73
2022-12-12T21:37:00.587Z,11.50
2022-12-12T21:39:34.041Z,12.77
2022-12-12T21:42:10.472Z,12.20
2022-12-12T21:44:45.825Z,10.40
2022-12-12T21:47:18.861Z,11.17
2022-12-12T21:49:51.956Z,8.67
2022-12-12T21:52:24.784Z,10.13
2022-12-12T21:54:57.563Z,9.37
2022-12-12T21:57:31.693Z,8.33
2022-12-12T22:00:06.179Z,10.33
2022-12-12T22:02:38.954Z,10.13
2022-12-12T22:05:12.053Z,9.97
2022-12-12T22:07:45.037Z,7.53
2022-12-12T22:10:17.931Z,9.07
2022-12-12T22:12:57.062Z,8.33
2022-12-12T22:15:30.319Z,6.80
2022-12-12T22:18:03.005Z,8.07
2022-12-12T22:20:36.170Z,8.20
2022-12-12T22:23:08.975Z,7.90
2022-12-12T22:25:41.724Z,7.80
2022-12-12T22:28:15.807Z,7.03
2022-12-12T22:30:48.604Z,9.07
2022-12-12T22:33:22.193Z,8.40
2022-12-12T22:35:59.375Z,6.00
2022-12-12T22:38:37.698Z,6.30
2022-12-12T22:41:10.885Z,7.43
2022-12-12T22:43:46.125Z,5.13
2022-12-12T22:46:18.998Z,7.83
2022-12-12T22:48:52.078Z,7.40
2022-12-12T22:51:25.757Z,8.97
2022-12-12T22:53:59.376Z,9.03
2022-12-12T22:56:32.827Z,8.23
2022-12-12T22:59:07.538Z,7.37
2022-12-12T23:01:40.437Z,10.07
2022-12-12T23:04:14.087Z,9.50
2022-12-12T23:06:46.940Z,7.50
2022-12-12T23:09:20.782Z,8.63
2022-12-12T23:11:53.769Z,10.50
2022-12-12T23:14:27.889Z,9.70
2022-12-12T23:17:00.680Z,7.83
2022-12-12T23:19:33.495Z,7.27
2022-12-12T23:22:06.318Z,9.67
2022-12-12T23:24:39.331Z,8.73
2022-12-12T23:27:12.053Z,8.20
2022-12-12T23:29:46.155Z,8.77
2022-12-12T23:32:21.023Z,8.40
2022-12-12T23:34:53.850Z,8.13
2022-12-12T23:37:26.652Z,8.53
2022-12-12T23:40:00.704Z,8.73
2022-12-12T23:42:36.043Z,9.33
2022-12-12T23:45:10.879Z,9.87
2022-12-12T23:47:45.560Z,9.43
2022-12-12T23:50:20.363Z,8.97
2022-12-12T23:52:53.282Z,10.20
2022-12-12T23:55:26.740Z,10.23
2022-12-12T23:57:59.452Z,10.40
